GMMEGMMN

Guest
Details From GMME - SALE
To GMMN - Casablanca Mohammed V Intl
Flight Number -
Tags decoded
Created
Modified
Stats Distance 61 nm / 112 km
Max Altitude 0 ft / 0 m
Waypoints 3
Social Downloads 0
Likes 0
Share VATSIM

Download

Looking for another format? Having issues loading an existing format? Contact us
Advertisement - Login to hide

Notes

Requested: GMME AK NUA GMMN

Route

GMME NUA GMMN

ID Type Via Altitude Latitude Longitude Leg Dist Tot Dist Heading (true) Name
O GMME APT - 0 ft / 0 m 34.05147˚ -6.75152˚ - 0 nm - SALE
NUA NDB - 0 ft / 0 m 33.43000˚ -7.61000˚ 56 nm 56 nm 229° / 229° Casablanca NDB
O GMMN APT - 0 ft / 0 m 33.36747˚ -7.58996˚ 3 nm 60 nm 165° / 165° Casablanca Mohammed V Intl

Altitude Profile

Advertisement - Login to hide

GMME

Details ICAO GMME (RBA)
Name SALE
Region Morocco
Timezone Africa/Casablanca (UTC+0.0)
Stats Elevation 276 ft / 84 m (AMSL)
Location 34.051468° -6.751519°
Runways 1
Magnetic Variation 1.500° W

METAR

GMME 260230Z VRB02KT 9999 SCT026 13/11 Q1013 NOSIG

Decode

TAF

TAF GMME 252300Z 2500/2606 30014KT 8000 SCT013 SCT020

Decode

Departure Runways

ID Width Length Bearing (true) Bearing (mag) Surface Threshold Offset Overrun Length
04 148 ft / 45 m 11,503 ft / 3,506 m 31.24° 32.74° Asphalt 0 ft / 0 m 197 ft / 60 m
22 148 ft / 45 m 11,503 ft / 3,506 m 211.25° 212.75° Asphalt 0 ft / 0 m 197 ft / 60 m

GMMN

Details ICAO GMMN (CMN)
Name Casablanca Mohammed V Intl
Region Morocco
Timezone Africa/Casablanca (UTC+0.0)
Stats Elevation 656 ft / 200 m (AMSL)
Location 33.367466° -7.589964°
Runways 2
Magnetic Variation 1.767° W

METAR

GMMN 260230Z 11001KT 9999 BKN016 14/14 Q1014 NOSIG

Decode

TAF

TAF GMMN 252300Z 2600/2706 VRB02KT 8000 SCT016 PROB30 TEMPO 2502/2508 3000 BR BKN006 BECMG 2608/2610 28008KT TEMPO 2614/2620 34012KT

Decode

Destination Runways

ID Width Length Bearing (true) Bearing (mag) Surface Threshold Offset Overrun Length
17L 148 ft / 45 m 12,224 ft / 3,726 m 164.03° 165.80° Asphalt 0 ft / 0 m 295 ft / 90 m
17R 148 ft / 45 m 12,196 ft / 3,717 m 164.03° 165.80° Asphalt 0 ft / 0 m 197 ft / 60 m
35L 148 ft / 45 m 12,196 ft / 3,717 m 344.04° 345.81° Asphalt 0 ft / 0 m 180 ft / 55 m
35R 148 ft / 45 m 12,224 ft / 3,726 m 344.04° 345.81° Asphalt 0 ft / 0 m 995 ft / 303 m

Approach Navaids

Runway Type Ident Frequency Range Bearing (true) Bearing (mag) Slope Elevation
35L Localiser INL 110.70 MHz 18 nm / 33 km 344.03° 345.80° - 656 ft / 200 m (AMSL)
35L Glidescope INL 110.70 MHz 10 nm / 19 km 344.03° 345.80° 3.00° 656 ft / 200 m (AMSL)
35L DME INL 110.70 MHz 18 nm / 33 km - - - 656 ft / 200 m (AMSL)
35R Localiser INR 109.90 MHz 18 nm / 33 km 344.04° 345.80° - 656 ft / 200 m (AMSL)
35R Glidescope INR 109.90 MHz 10 nm / 19 km 344.04° 345.80° 2.70° 656 ft / 200 m (AMSL)

Popular Alternatives